createdAt,value
2022-12-29T00:00:25.425Z,19.50
2022-12-29T00:02:54.581Z,19.53
2022-12-29T00:05:23.843Z,20.13
2022-12-29T00:07:52.848Z,19.70
2022-12-29T00:10:21.840Z,20.00
2022-12-29T00:13:09.695Z,20.10
2022-12-29T00:15:39.497Z,20.63
2022-12-29T00:18:09.220Z,20.53
2022-12-29T00:20:56.408Z,21.60
2022-12-29T00:23:43.182Z,21.27
2022-12-29T00:26:33.530Z,22.90
2022-12-29T00:29:24.553Z,23.00
2022-12-29T00:32:11.070Z,23.93
2022-12-29T00:34:57.478Z,24.63
2022-12-29T00:37:46.705Z,25.37
2022-12-29T00:40:51.462Z,26.47
2022-12-29T00:43:37.523Z,25.87
2022-12-29T00:46:08.194Z,26.27
2022-12-29T00:48:54.836Z,26.47
2022-12-29T00:51:24.017Z,26.47
2022-12-29T00:53:52.986Z,26.27
2022-12-29T00:56:22.076Z,25.03
2022-12-29T00:58:51.118Z,25.60
2022-12-29T01:01:21.917Z,24.20
2022-12-29T01:03:51.287Z,23.33
2022-12-29T01:06:22.302Z,24.60
2022-12-29T01:09:11.868Z,24.40
2022-12-29T01:11:40.528Z,23.77
2022-12-29T01:14:09.766Z,23.57
2022-12-29T01:16:40.812Z,23.27
2022-12-29T01:19:10.137Z,22.27
2022-12-29T01:21:39.356Z,22.47
2022-12-29T01:24:09.030Z,22.97
2022-12-29T01:26:38.223Z,22.97
2022-12-29T01:29:07.366Z,23.73
2022-12-29T01:31:36.534Z,23.70
2022-12-29T01:34:07.530Z,25.03
2022-12-29T01:36:37.334Z,25.03
2022-12-29T01:39:25.084Z,24.30
2022-12-29T01:41:54.219Z,25.77
2022-12-29T01:44:52.256Z,25.23
2022-12-29T01:47:29.630Z,25.47
2022-12-29T01:50:03.830Z,25.47
2022-12-29T01:52:36.749Z,25.63
2022-12-29T01:55:07.675Z,26.30
2022-12-29T01:57:39.656Z,26.00
2022-12-29T02:00:27.021Z,28.33
2022-12-29T02:02:57.216Z,30.03
2022-12-29T02:05:32.253Z,32.47
2022-12-29T02:08:02.930Z,29.30
2022-12-29T02:10:35.683Z,28.67
2022-12-29T02:13:05.003Z,28.73
2022-12-29T02:15:47.038Z,26.50
2022-12-29T02:18:28.838Z,26.93
2022-12-29T02:21:31.910Z,26.20
2022-12-29T02:24:34.768Z,26.57
2022-12-29T02:27:40.063Z,27.33
2022-12-29T02:30:18.205Z,27.17
2022-12-29T02:32:56.856Z,27.87
2022-12-29T02:35:33.870Z,25.97
2022-12-29T02:38:23.387Z,28.20
2022-12-29T02:41:00.895Z,27.97
2022-12-29T02:43:36.163Z,28.07
2022-12-29T02:46:13.239Z,27.67
2022-12-29T02:48:49.617Z,27.60
2022-12-29T02:51:24.095Z,28.50
2022-12-29T02:54:12.382Z,27.87
2022-12-29T02:56:41.679Z,28.77
2022-12-29T02:59:11.609Z,31.23
2022-12-29T03:02:07.863Z,29.73
2022-12-29T03:04:50.027Z,28.87
2022-12-29T03:07:26.628Z,30.10
2022-12-29T03:10:02.586Z,32.13
2022-12-29T03:12:53.440Z,31.07
2022-12-29T03:15:43.630Z,29.83
2022-12-29T03:18:17.485Z,32.47
2022-12-29T03:20:53.725Z,31.17
2022-12-29T03:23:25.199Z,29.77
2022-12-29T03:26:00.585Z,30.30
2022-12-29T03:28:35.662Z,31.27
2022-12-29T03:31:06.975Z,30.67
2022-12-29T03:33:40.603Z,32.10
2022-12-29T03:36:19.234Z,39.97
2022-12-29T03:38:53.025Z,50.07
2022-12-29T03:41:28.170Z,50.83
2022-12-29T03:43:57.631Z,57.17
2022-12-29T03:46:26.755Z,57.67
2022-12-29T03:48:55.911Z,46.47
2022-12-29T03:51:27.652Z,40.50
2022-12-29T03:53:57.289Z,39.17
2022-12-29T03:56:26.484Z,36.57
2022-12-29T03:58:56.444Z,35.97
2022-12-29T04:01:34.693Z,38.93
2022-12-29T04:04:04.335Z,37.00
2022-12-29T04:06:35.256Z,35.93
2022-12-29T04:09:07.931Z,36.50
2022-12-29T04:11:55.801Z,35.20
2022-12-29T04:14:25.113Z,34.67
2022-12-29T04:16:55.751Z,30.80
2022-12-29T04:19:25.804Z,37.07
2022-12-29T04:21:56.421Z,49.63
2022-12-29T04:24:26.184Z,42.60
2022-12-29T04:26:55.514Z,41.77
2022-12-29T04:29:44.875Z,48.63
2022-12-29T04:32:32.865Z,51.30
2022-12-29T04:35:02.063Z,82.90
2022-12-29T04:37:32.595Z,46.17
2022-12-29T04:40:01.772Z,42.17
2022-12-29T04:42:32.002Z,95.90
2022-12-29T04:45:02.784Z,87.70
2022-12-29T04:47:47.712Z,58.97
2022-12-29T04:50:35.476Z,48.03
2022-12-29T04:53:18.718Z,61.73
2022-12-29T04:55:52.421Z,71.17
2022-12-29T04:58:23.019Z,79.33
2022-12-29T05:00:53.948Z,74.20
2022-12-29T05:03:26.488Z,83.60
2022-12-29T05:05:57.160Z,86.97
2022-12-29T05:08:28.538Z,84.00
2022-12-29T05:11:00.976Z,83.00
2022-12-29T05:13:30.235Z,75.83
2022-12-29T05:16:00.112Z,73.70
2022-12-29T05:18:30.338Z,71.27
2022-12-29T05:21:01.357Z,77.27
2022-12-29T05:23:32.520Z,72.70
2022-12-29T05:26:06.275Z,63.90
2022-12-29T05:28:46.896Z,56.20
2022-12-29T05:31:20.767Z,56.33
2022-12-29T05:34:08.148Z,79.07
2022-12-29T05:36:38.250Z,76.27
2022-12-29T05:39:11.485Z,75.67
2022-12-29T05:41:40.846Z,78.73
2022-12-29T05:44:13.367Z,92.70
2022-12-29T05:46:57.934Z,111.67
2022-12-29T05:49:47.531Z,142.27
2022-12-29T05:52:41.137Z,109.20
2022-12-29T05:55:12.713Z,98.93
2022-12-29T05:57:42.677Z,85.20
2022-12-29T06:00:18.253Z,85.63
2022-12-29T06:02:49.220Z,99.13
2022-12-29T06:05:20.082Z,105.87
2022-12-29T06:07:49.914Z,98.57
2022-12-29T06:10:22.442Z,90.67
2022-12-29T06:13:02.111Z,93.23
2022-12-29T06:15:33.670Z,98.30
2022-12-29T06:18:03.304Z,94.47
2022-12-29T06:20:32.444Z,83.97
2022-12-29T06:23:01.697Z,96.77
2022-12-29T06:25:34.763Z,92.57
2022-12-29T06:28:06.357Z,70.67
2022-12-29T06:30:35.806Z,62.07
2022-12-29T06:33:05.342Z,57.03
2022-12-29T06:35:35.047Z,50.07
2022-12-29T06:38:04.119Z,47.77
2022-12-29T06:40:34.923Z,43.50
2022-12-29T06:43:31.611Z,42.70
2022-12-29T06:46:07.472Z,42.63
2022-12-29T06:48:36.823Z,42.20
2022-12-29T06:51:06.311Z,41.17
2022-12-29T06:53:35.419Z,43.33
2022-12-29T06:56:06.337Z,39.73
2022-12-29T06:58:35.557Z,39.53
2022-12-29T07:01:04.675Z,38.23
2022-12-29T07:03:33.795Z,38.33
2022-12-29T07:06:03.099Z,36.90
2022-12-29T07:08:32.254Z,36.13
2022-12-29T07:11:01.338Z,35.47
2022-12-29T07:13:33.900Z,34.67
2022-12-29T07:16:07.280Z,36.17
2022-12-29T07:18:37.026Z,39.37
2022-12-29T07:21:06.784Z,35.80
2022-12-29T07:23:36.402Z,34.97
2022-12-29T07:26:07.689Z,34.13
2022-12-29T07:28:39.298Z,32.67
2022-12-29T07:31:27.115Z,29.53
2022-12-29T07:33:56.639Z,30.00
2022-12-29T07:36:30.779Z,28.30
2022-12-29T07:39:03.325Z,29.07
2022-12-29T07:41:32.369Z,29.13
2022-12-29T07:44:06.138Z,29.53
2022-12-29T07:46:57.764Z,29.37
2022-12-29T07:49:28.053Z,28.43
2022-12-29T07:51:57.079Z,28.83
2022-12-29T07:54:26.171Z,28.80
2022-12-29T07:56:55.891Z,28.20
2022-12-29T07:59:26.345Z,28.90
2022-12-29T08:01:55.583Z,26.83
2022-12-29T08:04:24.851Z,28.03
2022-12-29T08:06:53.912Z,28.70
2022-12-29T08:09:24.345Z,29.03
2022-12-29T08:12:13.203Z,28.50
2022-12-29T08:14:43.596Z,27.83
2022-12-29T08:17:12.653Z,30.47
2022-12-29T08:19:43.835Z,28.73
2022-12-29T08:22:12.826Z,28.47
2022-12-29T08:24:41.747Z,30.60
2022-12-29T08:27:18.183Z,28.67
2022-12-29T08:29:50.931Z,28.97
2022-12-29T08:32:19.921Z,27.37
2022-12-29T08:34:49.011Z,26.47
2022-12-29T08:37:18.057Z,26.10
2022-12-29T08:39:47.158Z,26.33
2022-12-29T08:42:16.205Z,27.37
2022-12-29T08:44:45.392Z,27.27
2022-12-29T08:47:15.977Z,25.47
2022-12-29T08:49:45.356Z,26.13
2022-12-29T08:52:14.427Z,23.70
2022-12-29T08:54:43.438Z,25.83
2022-12-29T08:57:13.727Z,24.63
2022-12-29T08:59:53.702Z,22.70
2022-12-29T09:02:24.975Z,24.20
2022-12-29T09:04:54.783Z,23.73
2022-12-29T09:07:23.855Z,23.30
2022-12-29T09:09:53.293Z,24.03
2022-12-29T09:12:22.302Z,27.47
2022-12-29T09:14:51.382Z,23.63
2022-12-29T09:17:37.943Z,24.40
2022-12-29T09:20:10.029Z,24.57
2022-12-29T09:22:39.591Z,24.77
2022-12-29T09:25:10.300Z,28.57
2022-12-29T09:27:39.863Z,24.43
2022-12-29T09:30:11.449Z,25.33
2022-12-29T09:32:45.075Z,23.53
2022-12-29T09:35:19.481Z,25.87
2022-12-29T09:37:48.905Z,28.73
2022-12-29T09:40:28.457Z,30.53
2022-12-29T09:43:11.787Z,26.20
2022-12-29T09:45:46.318Z,22.87
2022-12-29T09:48:19.951Z,24.53
2022-12-29T09:50:58.371Z,23.70
2022-12-29T09:53:32.946Z,26.73
2022-12-29T09:56:23.429Z,22.10
2022-12-29T09:58:58.267Z,24.93
2022-12-29T10:01:33.575Z,27.80
2022-12-29T10:04:06.352Z,28.27
2022-12-29T10:07:27.966Z,30.33
2022-12-29T10:09:36.607Z,22.83
2022-12-29T10:12:18.319Z,24.33
2022-12-29T10:15:00.860Z,27.60
2022-12-29T10:17:40.611Z,26.13
2022-12-29T10:20:31.589Z,32.07
2022-12-29T10:23:23.186Z,27.23
2022-12-29T10:25:55.073Z,23.80
2022-12-29T10:28:27.595Z,30.87
2022-12-29T10:31:05.079Z,32.07
2022-12-29T10:33:41.901Z,29.47
2022-12-29T10:36:19.430Z,29.23
2022-12-29T10:39:00.219Z,29.47
2022-12-29T10:41:35.421Z,32.23
2022-12-29T10:44:04.521Z,31.63
2022-12-29T10:46:38.581Z,57.47
2022-12-29T10:49:29.447Z,67.43
2022-12-29T10:52:02.727Z,66.47
2022-12-29T10:54:41.520Z,71.17
2022-12-29T10:57:15.037Z,63.93
2022-12-29T10:59:44.717Z,63.63
2022-12-29T11:02:46.037Z,68.73
2022-12-29T11:05:25.391Z,67.40
2022-12-29T11:07:59.865Z,64.43
2022-12-29T11:10:39.993Z,68.77
2022-12-29T11:13:15.756Z,72.23
2022-12-29T11:15:46.999Z,76.77
2022-12-29T11:18:25.569Z,76.70
2022-12-29T11:20:56.675Z,75.43
2022-12-29T11:23:29.282Z,79.47
2022-12-29T11:26:17.991Z,78.47
2022-12-29T11:28:49.217Z,70.37
2022-12-29T11:31:24.370Z,71.90
2022-12-29T11:33:53.601Z,74.63
2022-12-29T11:36:25.435Z,77.37
2022-12-29T11:38:57.197Z,75.47
2022-12-29T11:41:31.051Z,76.57
2022-12-29T11:44:01.734Z,79.07
2022-12-29T11:46:34.128Z,76.40
2022-12-29T11:49:05.510Z,75.43
2022-12-29T11:51:41.569Z,74.27
2022-12-29T11:54:21.577Z,77.30
2022-12-29T11:56:53.614Z,77.20
2022-12-29T11:59:42.349Z,75.87
2022-12-29T12:02:43.158Z,75.43
2022-12-29T12:05:22.974Z,78.53
2022-12-29T12:07:59.586Z,82.00
2022-12-29T12:10:51.626Z,82.50
2022-12-29T12:13:28.032Z,78.07
2022-12-29T12:16:04.616Z,77.13
2022-12-29T12:18:56.113Z,76.73
2022-12-29T12:21:30.510Z,80.93
2022-12-29T12:24:12.283Z,73.67
2022-12-29T12:26:47.193Z,77.10
2022-12-29T12:29:23.399Z,76.70
2022-12-29T12:31:57.640Z,78.93
2022-12-29T12:34:33.057Z,76.77
2022-12-29T12:37:39.008Z,73.50
2022-12-29T12:40:42.305Z,76.30
2022-12-29T12:43:35.833Z,77.10
2022-12-29T12:46:31.596Z,73.20
2022-12-29T12:49:25.828Z,74.37
2022-12-29T12:52:05.525Z,73.03
2022-12-29T12:54:50.436Z,78.20
2022-12-29T12:57:27.373Z,78.73
2022-12-29T13:00:06.145Z,77.47
2022-12-29T13:02:51.095Z,78.17
2022-12-29T13:05:34.150Z,76.10
2022-12-29T13:08:35.125Z,79.70
2022-12-29T13:11:31.387Z,79.13
2022-12-29T13:14:25.651Z,76.70
2022-12-29T13:17:02.520Z,74.67
2022-12-29T13:19:37.173Z,76.13
2022-12-29T13:22:12.220Z,74.63
2022-12-29T13:24:55.563Z,75.80
2022-12-29T13:27:36.944Z,73.77
2022-12-29T13:30:11.605Z,72.37
2022-12-29T13:32:54.546Z,73.10
2022-12-29T13:35:35.967Z,77.70
2022-12-29T13:38:12.975Z,75.50
2022-12-29T13:40:47.292Z,70.83
2022-12-29T13:43:17.390Z,75.63
2022-12-29T13:45:47.798Z,73.23
2022-12-29T13:48:22.722Z,74.87
2022-12-29T13:50:56.172Z,81.13
2022-12-29T13:53:36.348Z,81.10
2022-12-29T13:56:13.946Z,78.70
2022-12-29T13:58:50.448Z,75.27
2022-12-29T14:01:25.381Z,77.50
2022-12-29T14:03:56.884Z,79.67
2022-12-29T14:06:29.326Z,79.77
2022-12-29T14:09:00.958Z,79.30
2022-12-29T14:11:34.942Z,77.33
2022-12-29T14:14:17.018Z,78.67
2022-12-29T14:16:47.030Z,84.67
2022-12-29T14:19:19.397Z,81.17
2022-12-29T14:21:59.832Z,88.03
2022-12-29T14:24:47.590Z,96.30
2022-12-29T14:27:55.219Z,115.37
2022-12-29T14:30:50.332Z,103.80
2022-12-29T14:33:20.205Z,102.13
2022-12-29T14:35:53.550Z,107.63
2022-12-29T14:38:30.168Z,124.03
2022-12-29T14:41:20.858Z,140.40
2022-12-29T14:44:03.491Z,136.40
2022-12-29T14:46:51.362Z,129.70
2022-12-29T14:49:24.320Z,114.07
2022-12-29T14:51:56.010Z,112.97
2022-12-29T14:54:50.839Z,112.50
2022-12-29T14:57:32.279Z,116.20
2022-12-29T15:00:08.340Z,123.60
2022-12-29T15:02:43.135Z,125.07
2022-12-29T15:05:33.419Z,121.50
2022-12-29T15:08:05.393Z,124.47
2022-12-29T15:10:43.255Z,130.40
2022-12-29T15:13:20.720Z,129.53
2022-12-29T15:15:50.627Z,135.00
2022-12-29T15:18:31.375Z,143.23
2022-12-29T15:21:02.977Z,147.43
2022-12-29T15:23:34.294Z,154.93
2022-12-29T15:26:08.654Z,151.13
2022-12-29T15:28:43.364Z,139.67
2022-12-29T15:31:15.856Z,134.00
2022-12-29T15:33:48.699Z,117.33
2022-12-29T15:36:22.222Z,113.23
2022-12-29T15:38:51.925Z,109.90
2022-12-29T15:41:32.229Z,110.73
2022-12-29T15:44:12.080Z,106.47
2022-12-29T15:46:41.737Z,106.60
2022-12-29T15:49:11.808Z,113.10
2022-12-29T15:52:00.048Z,123.07
2022-12-29T15:54:33.894Z,132.40
2022-12-29T15:57:04.645Z,107.70
2022-12-29T15:59:35.414Z,119.03
2022-12-29T16:02:11.967Z,102.33
2022-12-29T16:05:09.335Z,103.03
2022-12-29T16:07:40.833Z,101.97
2022-12-29T16:10:30.457Z,101.37
2022-12-29T16:13:07.730Z,103.93
2022-12-29T16:15:37.346Z,115.13
2022-12-29T16:18:06.639Z,118.50
2022-12-29T16:20:42.787Z,117.23
2022-12-29T16:23:22.743Z,127.93
2022-12-29T16:25:52.267Z,142.57
2022-12-29T16:28:25.636Z,159.73
2022-12-29T16:31:04.551Z,184.07
2022-12-29T16:33:54.337Z,200.30
2022-12-29T16:36:30.328Z,193.97
2022-12-29T16:39:28.778Z,188.67
2022-12-29T16:41:58.525Z,190.43
2022-12-29T16:44:30.290Z,195.03
2022-12-29T16:47:18.262Z,179.43
2022-12-29T16:49:56.491Z,170.13
2022-12-29T16:52:32.283Z,132.57
2022-12-29T16:55:02.612Z,129.77
2022-12-29T16:57:35.073Z,130.00
2022-12-29T17:00:10.195Z,122.30
2022-12-29T17:02:46.073Z,123.70
2022-12-29T17:05:16.174Z,125.47
2022-12-29T17:07:45.866Z,115.40
2022-12-29T17:10:15.966Z,111.07
2022-12-29T17:12:46.876Z,109.87
2022-12-29T17:15:25.002Z,107.60
2022-12-29T17:18:14.391Z,103.43
2022-12-29T17:20:43.590Z,112.60
2022-12-29T17:23:25.927Z,110.30
2022-12-29T17:26:14.892Z,104.37
2022-12-29T17:28:44.139Z,105.00
2022-12-29T17:31:15.700Z,105.30
2022-12-29T17:33:44.968Z,107.63
2022-12-29T17:36:14.185Z,106.70
2022-12-29T17:38:43.218Z,107.70
2022-12-29T17:41:16.877Z,109.20
2022-12-29T17:43:46.012Z,105.03
2022-12-29T17:46:16.591Z,101.07
2022-12-29T17:48:53.184Z,111.73
2022-12-29T17:51:23.545Z,112.53
2022-12-29T17:53:53.427Z,112.27
2022-12-29T17:56:22.496Z,113.53
2022-12-29T17:58:52.672Z,110.97
2022-12-29T18:01:31.053Z,116.30
2022-12-29T18:04:02.974Z,120.87
2022-12-29T18:06:32.277Z,122.17
2022-12-29T18:09:01.383Z,117.30
2022-12-29T18:11:30.564Z,119.37
2022-12-29T18:13:59.947Z,113.27
2022-12-29T18:16:30.562Z,117.73
2022-12-29T18:18:59.551Z,117.00
2022-12-29T18:21:28.946Z,112.80
2022-12-29T18:23:57.942Z,121.83
2022-12-29T18:26:29.225Z,123.37
2022-12-29T18:28:58.778Z,122.00
2022-12-29T18:31:31.141Z,126.70
2022-12-29T18:34:02.008Z,128.63
2022-12-29T18:36:31.566Z,136.97
2022-12-29T18:39:00.663Z,148.90
2022-12-29T18:41:30.611Z,180.50
2022-12-29T18:44:00.363Z,170.17
2022-12-29T18:46:31.522Z,186.03
2022-12-29T18:49:00.918Z,200.43
2022-12-29T18:51:30.258Z,213.13
2022-12-29T18:53:59.358Z,247.97
2022-12-29T18:56:28.687Z,228.37
2022-12-29T18:58:57.649Z,219.23
2022-12-29T19:01:28.846Z,201.63
2022-12-29T19:03:59.656Z,208.20
2022-12-29T19:06:29.042Z,179.03
2022-12-29T19:08:58.302Z,176.63
2022-12-29T19:11:27.823Z,178.97
2022-12-29T19:13:57.020Z,201.07
2022-12-29T19:16:27.212Z,212.80
2022-12-29T19:19:09.100Z,201.93
2022-12-29T19:21:40.898Z,213.30
2022-12-29T19:24:10.276Z,194.90
2022-12-29T19:26:40.854Z,192.30
2022-12-29T19:29:15.221Z,196.67
2022-12-29T19:31:44.726Z,199.97
2022-12-29T19:34:16.249Z,192.80
2022-12-29T19:36:47.551Z,195.20
2022-12-29T19:39:16.609Z,251.80
2022-12-29T19:41:45.689Z,212.53
2022-12-29T19:44:14.841Z,228.50
2022-12-29T19:46:44.027Z,231.27
2022-12-29T19:49:13.068Z,221.37
2022-12-29T19:51:42.235Z,222.07
2022-12-29T19:54:12.748Z,237.63
2022-12-29T19:56:44.604Z,232.97
2022-12-29T19:59:13.879Z,236.63
2022-12-29T20:01:43.181Z,244.27
2022-12-29T20:04:12.534Z,260.27
2022-12-29T20:06:41.597Z,260.90
2022-12-29T20:09:12.213Z,282.20
2022-12-29T20:11:41.203Z,255.67
2022-12-29T20:14:10.141Z,245.67
2022-12-29T20:17:02.473Z,232.50
2022-12-29T20:19:28.386Z,224.57
2022-12-29T20:21:57.831Z,248.77
2022-12-29T20:24:28.671Z,257.17
2022-12-29T20:26:59.355Z,290.37
2022-12-29T20:29:29.786Z,267.13
2022-12-29T20:31:58.877Z,306.40
2022-12-29T20:34:27.869Z,390.53
2022-12-29T20:36:56.882Z,300.40
2022-12-29T20:39:25.923Z,304.57
2022-12-29T20:41:56.415Z,268.00
2022-12-29T20:44:44.246Z,389.53
2022-12-29T20:47:13.525Z,447.47
2022-12-29T20:49:42.675Z,452.73
2022-12-29T20:52:12.577Z,253.57
2022-12-29T20:54:41.704Z,200.50
2022-12-29T20:57:12.602Z,184.17
2022-12-29T20:59:41.855Z,181.67
2022-12-29T21:02:21.021Z,166.90
2022-12-29T21:05:23.197Z,205.90
2022-12-29T21:07:42.051Z,178.33
2022-12-29T21:10:11.480Z,181.97
2022-12-29T21:12:42.641Z,180.73
2022-12-29T21:15:14.561Z,151.30
2022-12-29T21:17:44.109Z,181.93
2022-12-29T21:20:20.333Z,174.53
2022-12-29T21:22:50.063Z,157.73
2022-12-29T21:25:19.217Z,176.63
2022-12-29T21:27:49.704Z,189.73
2022-12-29T21:30:18.908Z,186.80
2022-12-29T21:32:48.133Z,160.33
2022-12-29T21:35:17.256Z,172.33
2022-12-29T21:37:46.234Z,161.77
2022-12-29T21:40:15.530Z,161.67
2022-12-29T21:42:44.743Z,162.57
2022-12-29T21:45:28.907Z,151.93
2022-12-29T21:48:18.367Z,160.80
2022-12-29T21:51:06.818Z,155.20
2022-12-29T21:53:40.815Z,133.57
2022-12-29T21:56:13.237Z,129.37
2022-12-29T21:59:01.235Z,132.60
2022-12-29T22:01:51.544Z,135.37
2022-12-29T22:04:40.362Z,134.03
2022-12-29T22:07:28.733Z,169.53
2022-12-29T22:10:15.084Z,162.77
2022-12-29T22:12:59.416Z,172.03
2022-12-29T22:15:29.341Z,140.90
2022-12-29T22:18:01.139Z,166.13
2022-12-29T22:20:48.979Z,230.03
2022-12-29T22:23:18.268Z,187.77
2022-12-29T22:25:48.866Z,188.87
2022-12-29T22:28:18.334Z,187.97
2022-12-29T22:30:47.268Z,172.43
2022-12-29T22:33:17.820Z,154.23
2022-12-29T22:35:47.191Z,139.80
2022-12-29T22:38:16.563Z,173.73
2022-12-29T22:40:46.144Z,165.43
2022-12-29T22:43:15.729Z,180.67
2022-12-29T22:45:44.678Z,175.03
2022-12-29T22:48:13.694Z,197.80
2022-12-29T22:50:44.134Z,202.83
2022-12-29T22:53:13.324Z,214.37
2022-12-29T22:55:42.413Z,212.87
2022-12-29T22:58:11.534Z,212.13
2022-12-29T23:00:40.627Z,231.53
2022-12-29T23:03:09.846Z,317.10
2022-12-29T23:05:38.966Z,321.93
2022-12-29T23:08:09.394Z,288.10
2022-12-29T23:10:38.559Z,313.83
2022-12-29T23:13:07.673Z,316.20
2022-12-29T23:15:36.801Z,292.60
2022-12-29T23:18:05.987Z,252.47
2022-12-29T23:20:35.241Z,245.43
2022-12-29T23:23:04.400Z,257.80
2022-12-29T23:25:37.978Z,289.77
2022-12-29T23:28:25.547Z,252.67
2022-12-29T23:30:54.694Z,241.63
2022-12-29T23:33:23.942Z,217.00
2022-12-29T23:35:53.147Z,192.77
2022-12-29T23:38:22.225Z,205.43
2022-12-29T23:41:12.254Z,186.07
2022-12-29T23:43:41.450Z,205.87
2022-12-29T23:46:11.695Z,183.73
2022-12-29T23:48:40.812Z,175.50
2022-12-29T23:51:10.366Z,176.93
2022-12-29T23:53:41.306Z,214.93
2022-12-29T23:56:14.409Z,215.43
2022-12-29T23:58:43.718Z,216.17
